Home > Products > Valid Products > TAF

000
FTUS44 KMOB 231600 AAA
TAFPNS
TAF AMD
KPNS 231611Z 2316/2412 02008KT P6SM FEW200
      TEMPO 2316/2318 BKN012
     FM231900 04009KT P6SM SCT010
     FM232100 06009KT P6SM SKC=



000
FTUS44 KMOB 231600 AAA
TAFPNS
TAF AMD
KPNS 231611Z 2316/2412 02008KT P6SM FEW200
      TEMPO 2316/2318 BKN012
     FM231900 04009KT P6SM SCT010
     FM232100 06009KT P6SM SKC=



000
FTUS44 KMOB 231100
TAFPNS
TAF
KPNS 231139Z 2312/2412 02008KT P6SM FEW200
      TEMPO 2314/2318 BKN005
     FM231900 04009KT P6SM SCT010
     FM232100 06009KT P6SM SKC=



000
FTUS44 KMOB 231100
TAFMOB
TAF
KMOB 231139Z 2312/2412 02008KT P6SM FEW200
     FM231800 04008KT P6SM FEW010
     FM232100 03007KT P6SM SKC=



000
FTUS44 KMOB 231100
TAFMOB
TAF
KMOB 231139Z 2312/2412 02008KT P6SM FEW200
     FM231800 04008KT P6SM FEW010
     FM232100 03007KT P6SM SKC=



000
FTUS44 KMOB 231100
TAFPNS
TAF
KPNS 231139Z 2312/2412 02008KT P6SM FEW200
      TEMPO 2314/2318 BKN005
     FM231900 04009KT P6SM SCT010
     FM232100 06009KT P6SM SKC=



000
FTUS44 KMOB 230500
TAFMOB
TAF
KMOB 230521Z 2306/2406 01007KT P6SM SKC
     FM231800 04008KT P6SM SKC=



000
FTUS44 KMOB 230500
TAFPNS
TAF
KPNS 230521Z 2306/2406 02004KT P6SM SKC
     FM231800 04009KT P6SM SKC=



000
FTUS44 KMOB 230500
TAFPNS
TAF
KPNS 230521Z 2306/2406 02004KT P6SM SKC
     FM231800 04009KT P6SM SKC=



000
FTUS44 KMOB 230500
TAFMOB
TAF
KMOB 230521Z 2306/2406 01007KT P6SM SKC
     FM231800 04008KT P6SM SKC=



000
FTUS44 KMOB 222300
TAFMOB
TAF
KMOB 222333Z 2300/2324 05007KT P6SM SKC
     FM231200 01005KT P6SM SKC=



000
FTUS44 KMOB 222300
TAFPNS
TAF
KPNS 222333Z 2300/2324 03011KT P6SM SKC
     FM231200 01005KT P6SM SKC=



000
FTUS44 KMOB 222300
TAFMOB
TAF
KMOB 222333Z 2300/2324 05007KT P6SM SKC
     FM231200 01005KT P6SM SKC=



000
FTUS44 KMOB 222300
TAFPNS
TAF
KPNS 222333Z 2300/2324 03011KT P6SM SKC
     FM231200 01005KT P6SM SKC=



000
FTUS44 KMOB 221700
TAFPNS
TAF
KPNS 221720Z 2218/2318 30006KT P6SM SKC
     FM221900 01005KT P6SM VCTS SCT030CB
     FM230000 02007KT P6SM SKC=



000
FTUS44 KMOB 221700
TAFPNS
TAF
KPNS 221720Z 2218/2318 30006KT P6SM SKC
     FM221900 01005KT P6SM VCTS SCT030CB
     FM230000 02007KT P6SM SKC=



000
FTUS44 KMOB 221700
TAFMOB
TAF
KMOB 221720Z 2218/2318 35007KT P6SM FEW030 SCT200
     FM221900 01005KT P6SM VCTS SCT030CB
     FM230000 02007KT P6SM SKC=



000
FTUS44 KMOB 221700
TAFMOB
TAF
KMOB 221720Z 2218/2318 35007KT P6SM FEW030 SCT200
     FM221900 01005KT P6SM VCTS SCT030CB
     FM230000 02007KT P6SM SKC=



000
FTUS44 KMOB 221200 RRA
TAFPNS
TAF
KPNS 221259Z 2213/2312 34003KT P6SM SKC
     FM221900 01005KT P6SM VCTS SCT030CB
     FM230000 01005KT P6SM SKC=



000
FTUS44 KMOB 221200 RRA
TAFMOB
TAF
KMOB 221259Z 2213/2312 00000KT P6SM FEW250
     FM221900 01005KT P6SM VCTS SCT030CB
     FM230000 01005KT P6SM SKC=



000
FTUS44 KMOB 220500
TAFMOB
TAF
KMOB 220520Z 2206/2306 00000KT P6SM FEW250
     FM221900 01005KT P6SM VCTS SCT030CB
     FM230000 01005KT P6SM SKC=



000
FTUS44 KMOB 220500
TAFMOB
TAF
KMOB 220520Z 2206/2306 00000KT P6SM FEW250
     FM221900 01005KT P6SM VCTS SCT030CB
     FM230000 01005KT P6SM SKC=



000
FTUS44 KMOB 220500
TAFPNS
TAF
KPNS 220520Z 2206/2306 34003KT P6SM SKC
     FM221900 01005KT P6SM VCTS SCT030CB
     FM230000 01005KT P6SM SKC=



000
FTUS44 KMOB 220500
TAFPNS
TAF
KPNS 220520Z 2206/2306 34003KT P6SM SKC
     FM221900 01005KT P6SM VCTS SCT030CB
     FM230000 01005KT P6SM SKC=



000
FTUS44 KMOB 212300
TAFMOB
TAF
KMOB 212324Z 2200/2224 00000KT P6SM SKC
     FM220300 VRB03KT P6SM SKC
     FM221900 01005KT P6SM VCTS SCT030CB=



000
FTUS44 KMOB 212300
TAFPNS
TAF
KPNS 212324Z 2200/2224 19007KT P6SM SKC
     FM220300 VRB03KT P6SM SKC
     FM221900 01005KT P6SM VCTS SCT030CB=



000
FTUS44 KMOB 212300
TAFPNS
TAF
KPNS 212324Z 2200/2224 19007KT P6SM SKC
     FM220300 VRB03KT P6SM SKC
     FM221900 01005KT P6SM VCTS SCT030CB=



000
FTUS44 KMOB 212300
TAFMOB
TAF
KMOB 212324Z 2200/2224 00000KT P6SM SKC
     FM220300 VRB03KT P6SM SKC
     FM221900 01005KT P6SM VCTS SCT030CB=



000
FTUS44 KMOB 211700
TAFMOB
TAF
KMOB 211720Z 2118/2218 08007KT P6SM SCT030
     FM212100 19006KT P6SM SCT040 SCT200
     FM220300 VRB03KT P6SM SKC=



000
FTUS44 KMOB 211700
TAFMOB
TAF
KMOB 211720Z 2118/2218 08007KT P6SM SCT030
     FM212100 19006KT P6SM SCT040 SCT200
     FM220300 VRB03KT P6SM SKC=



000
FTUS44 KMOB 211700
TAFPNS
TAF
KPNS 211720Z 2118/2218 10009KT P6SM FEW035
     FM220300 VRB03KT P6SM SKC=



000
FTUS44 KMOB 211700
TAFPNS
TAF
KPNS 211720Z 2118/2218 10009KT P6SM FEW035
     FM220300 VRB03KT P6SM SKC=



000
FTUS44 KMOB 211100
TAFPNS
TAF
KPNS 211129Z 2112/2212 04004KT P6SM FEW050 FEW200
     FM211800 14007KT P6SM SCT040 SCT200=



000
FTUS44 KMOB 211100
TAFMOB
TAF
KMOB 211129Z 2112/2212 04004KT P6SM FEW030 FEW200
     FM212100 19006KT P6SM SCT040 SCT200=



000
FTUS44 KMOB 211100
TAFPNS
TAF
KPNS 211129Z 2112/2212 04004KT P6SM FEW050 FEW200
     FM211800 14007KT P6SM SCT040 SCT200=



000
FTUS44 KMOB 211100
TAFMOB
TAF
KMOB 211129Z 2112/2212 04004KT P6SM FEW030 FEW200
     FM212100 19006KT P6SM SCT040 SCT200=



000
FTUS44 KMOB 210500
TAFMOB
TAF
KMOB 210526Z 2106/2206 04005KT P6SM FEW030 FEW200
     FM212100 19006KT P6SM SCT040 SCT200=



000
FTUS44 KMOB 210500
TAFPNS
TAF
KPNS 210526Z 2106/2206 04004KT P6SM FEW050 FEW200
     FM211800 14007KT P6SM SCT040 SCT200=



000
FTUS44 KMOB 210500
TAFMOB
TAF
KMOB 210526Z 2106/2206 04005KT P6SM FEW030 FEW200
     FM212100 19006KT P6SM SCT040 SCT200=



000
FTUS44 KMOB 210500
TAFPNS
TAF
KPNS 210526Z 2106/2206 04004KT P6SM FEW050 FEW200
     FM211800 14007KT P6SM SCT040 SCT200=



000
FTUS44 KMOB 202300
TAFMOB
TAF
KMOB 202340Z 2100/2124 04005KT P6SM FEW040 SCT200
     FM212100 19005KT P6SM FEW040 SCT200=



000
FTUS44 KMOB 202300
TAFPNS
TAF
KPNS 202340Z 2100/2124 05006KT P6SM FEW040 SCT200
     FM211900 17009KT P6SM FEW040 SCT200=



000
FTUS44 KMOB 202300
TAFPNS
TAF
KPNS 202340Z 2100/2124 05006KT P6SM FEW040 SCT200
     FM211900 17009KT P6SM FEW040 SCT200=



000
FTUS44 KMOB 202300
TAFMOB
TAF
KMOB 202340Z 2100/2124 04005KT P6SM FEW040 SCT200
     FM212100 19005KT P6SM FEW040 SCT200=



000
FTUS44 KMOB 201700
TAFPNS
TAF
KPNS 201720Z 2018/2118 03007KT P6SM SCT020
     FM210000 05004KT P6SM SKC
     FM211600 07005KT P6SM FEW035=



000
FTUS44 KMOB 201700
TAFMOB
TAF
KMOB 201720Z 2018/2118 06011KT P6SM SCT030
     FM210000 05003KT P6SM SKC
      TEMPO 2110/2114 4SM BR
     FM211600 05005KT P6SM FEW035=



000
FTUS44 KMOB 201700
TAFMOB
TAF
KMOB 201720Z 2018/2118 06011KT P6SM SCT030
     FM210000 05003KT P6SM SKC
      TEMPO 2110/2114 4SM BR
     FM211600 05005KT P6SM FEW035=



000
FTUS44 KMOB 201700
TAFPNS
TAF
KPNS 201720Z 2018/2118 03007KT P6SM SCT020
     FM210000 05004KT P6SM SKC
     FM211600 07005KT P6SM FEW035=



    US Dept of Commerce
    National Oceanic and Atmospheric Administration
    National Weather Service
    1325 East West Highway
    Silver Spring, MD 20910
    Page Author: NWS Internet Services Team
Disclaimer
Information Quality
Credits
Glossary
Privacy Policy
Freedom of Information Act (FOIA)
About Us
Career Opportunities